Brendelen — EINR — position and weather

sailwx.info

Track history (hours):
 
Tides and Currents Weather Stations Pressure Air Temp Water Temp Dewpoint Dewpoint Depression Visibility Wind Speed Wind Dir Waves Ship Positions

Brendelen

Last reported at 2014-Nov-18 03:33 UTC. Time now 2014-Nov-21 18:03 UTC.
Position N 53°57' W 010°19'.

Length 64 m; draft 7.8 m.

Type: Fishing. MMSI: 250512000.

Date/timePositionNaut miles runAvg speedWind from/ knotsBaromVisibWave heightAir tempDewpointWater temp
2014-Nov-18 03:33N 53°57' W 010°19'6711.0
2014-Nov-17 21:27N 54°34' W 008°43'5 4.9
2014-Nov-17 20:33N 54°34' W 008°36'6 6.3
2014-Nov-17 19:33N 54°38' W 008°26'0 0.0
2014-Nov-17 18:33N 54°38' W 008°26'0 0.0
2014-Nov-17 17:33N 54°38' W 008°26'0 0.0
2014-Nov-17 16:33N 54°38' W 008°26'0 0.0
2014-Nov-17 15:33N 54°38' W 008°26'0 0.0
2014-Nov-17 14:33N 54°38' W 008°26'0 0.0
2014-Nov-17 13:33N 54°38' W 008°26'0 0.0
2014-Nov-17 12:33N 54°38' W 008°26'0 0.0
2014-Nov-17 11:33N 54°38' W 008°26'0 0.0
2014-Nov-17 10:33N 54°38' W 008°26'0 0.0
2014-Nov-17 09:33N 54°38' W 008°26'0 0.0
2014-Nov-17 08:33N 54°38' W 008°26'0 0.0
2014-Nov-17 07:33N 54°38' W 008°26'0 0.0
2014-Nov-17 06:33N 54°38' W 008°26'0 0.0
2014-Nov-17 05:33N 54°38' W 008°26'0 0.0
2014-Nov-17 04:33N 54°38' W 008°26'0 0.0
2014-Nov-17 03:33N 54°38' W 008°26'0 0.0
2014-Nov-17 02:33N 54°38' W 008°26'0 0.0
2014-Nov-17 01:33N 54°38' W 008°26'0 0.0
2014-Nov-17 00:33N 54°38' W 008°26'0 0.0
2014-Nov-16 23:33N 54°38' W 008°26'0 0.0
2014-Nov-16 22:33N 54°38' W 008°26'0 0.0
2014-Nov-16 21:33N 54°38' W 008°26'0 0.0
2014-Nov-16 20:33N 54°38' W 008°26'0 0.0
2014-Nov-16 19:33N 54°38' W 008°26'0 0.0
2014-Nov-16 18:33N 54°38' W 008°26'0 0.0
2014-Nov-16 17:33N 54°38' W 008°26'0 0.0
2014-Nov-16 16:33N 54°38' W 008°26'0 0.0
2014-Nov-16 15:34N 54°38' W 008°26'0 0.0
2014-Nov-16 14:33N 54°38' W 008°26'0 0.0
2014-Nov-16 13:33N 54°38' W 008°26'0 0.0
2014-Nov-16 12:33N 54°38' W 008°26'0 0.0
2014-Nov-16 11:33N 54°38' W 008°26'0 0.0
2014-Nov-16 10:33N 54°38' W 008°26'0 0.0
2014-Nov-16 09:33N 54°38' W 008°26'0 0.0
2014-Nov-16 08:33N 54°38' W 008°26'0 0.0
2014-Nov-16 07:33N 54°38' W 008°26'0 0.0
2014-Nov-16 06:33N 54°38' W 008°26'0 0.0
2014-Nov-16 05:33N 54°38' W 008°26'0 0.0
2014-Nov-16 04:33N 54°38' W 008°26'0 0.0
2014-Nov-16 03:33N 54°38' W 008°26'0 0.0
2014-Nov-16 02:33N 54°38' W 008°26'0 0.0
2014-Nov-16 01:33N 54°38' W 008°26'0 0.0
2014-Nov-16 00:33N 54°38' W 008°26'0 0.0
2014-Nov-15 23:32N 54°38' W 008°26'0 0.0
2014-Nov-15 22:33N 54°38' W 008°26'0 0.0
2014-Nov-15 21:33N 54°38' W 008°26'0 0.0
2014-Nov-15 20:33N 54°38' W 008°26'0 0.0
2014-Nov-15 19:33N 54°38' W 008°26'0 0.0
2014-Nov-15 18:33N 54°38' W 008°26'0 0.0
2014-Nov-15 17:33N 54°38' W 008°26'0 0.0
2014-Nov-15 16:33N 54°38' W 008°26'0 0.0
2014-Nov-15 15:33N 54°38' W 008°26'0 0.0
2014-Nov-15 14:33N 54°38' W 008°26'0 0.0
2014-Nov-15 13:33N 54°38' W 008°26'0 0.0
2014-Nov-15 12:33N 54°38' W 008°26'0 0.0
2014-Nov-15 11:33N 54°38' W 008°26'7 6.9
2014-Nov-15 10:33N 54°36' W 008°38'22911.2
2014-Nov-14 14:08N 58°07' W 005°54'249 5.0
2014-Nov-12 12:05N 62°14' W 006°48'0 0.5
2014-Nov-12 11:27N 62°14' W 006°48'0 0.0
2014-Nov-12 10:33N 62°14' W 006°48'0 0.0
2014-Nov-12 09:32N 62°14' W 006°48'0 0.0
2014-Nov-12 08:22N 62°14' W 006°48'0 0.0
2014-Nov-12 06:07N 62°14' W 006°48'0 0.0
2014-Nov-12 05:30N 62°14' W 006°48'0 0.0
2014-Nov-12 04:07N 62°14' W 006°48'0 0.0
2014-Nov-11 20:15N 62°14' W 006°48'0 0.0
2014-Nov-11 19:32N 62°14' W 006°48'0 0.1
2014-Nov-11 15:15N 62°14' W 006°48'0 0.0
2014-Nov-11 14:33N 62°14' W 006°48'0 0.0
2014-Nov-11 13:33N 62°14' W 006°48'0 0.0
2014-Nov-11 12:33N 62°14' W 006°48'0 0.0
2014-Nov-11 11:33N 62°14' W 006°48'0 0.0
2014-Nov-11 10:33N 62°14' W 006°48'0 0.0
2014-Nov-11 09:33N 62°14' W 006°48'0 0.0
2014-Nov-11 08:33N 62°14' W 006°48'0 0.0
2014-Nov-11 07:33N 62°14' W 006°48'0 0.0
2014-Nov-11 06:33N 62°14' W 006°48'0 0.0
2014-Nov-11 05:34N 62°14' W 006°48'0 0.0
2014-Nov-11 04:33N 62°14' W 006°48'0 0.0
2014-Nov-11 03:33N 62°14' W 006°48'0 0.0
2014-Nov-11 02:33N 62°14' W 006°48'0 0.0
2014-Nov-11 01:33N 62°14' W 006°48'0 0.2
2014-Nov-11 00:33N 62°14' W 006°48'0 0.0
2014-Nov-10 23:33N 62°14' W 006°48'0 0.0
2014-Nov-10 22:33N 62°14' W 006°48'4 3.6
2014-Nov-10 21:31N 62°18' W 006°48'  
Track history (hours):
 
Tides and Currents Weather Stations Pressure Air Temp Water Temp Dewpoint Dewpoint Depression Visibility Wind Speed Wind Dir Waves Ship Positions

Brendelen

Last reported at 2014-Nov-18 03:33 UTC. Time now 2014-Nov-21 18:03 UTC.
Position N 53°57' W 010°19'.

Length 64 m; draft 7.8 m.

Type: Fishing. MMSI: 250512000.

Date/timePositionNaut miles runAvg speedWind from/ knotsBaromVisibWave heightAir tempDewpointWater temp
2014-Nov-18 03:33N 53°57' W 010°19'6711.0
2014-Nov-17 21:27N 54°34' W 008°43'5 4.9
2014-Nov-17 20:33N 54°34' W 008°36'6 6.3
2014-Nov-17 19:33N 54°38' W 008°26'0 0.0
2014-Nov-17 18:33N 54°38' W 008°26'0 0.0
2014-Nov-17 17:33N 54°38' W 008°26'0 0.0
2014-Nov-17 16:33N 54°38' W 008°26'0 0.0
2014-Nov-17 15:33N 54°38' W 008°26'0 0.0
2014-Nov-17 14:33N 54°38' W 008°26'0 0.0
2014-Nov-17 13:33N 54°38' W 008°26'0 0.0
2014-Nov-17 12:33N 54°38' W 008°26'0 0.0
2014-Nov-17 11:33N 54°38' W 008°26'0 0.0
2014-Nov-17 10:33N 54°38' W 008°26'0 0.0
2014-Nov-17 09:33N 54°38' W 008°26'0 0.0
2014-Nov-17 08:33N 54°38' W 008°26'0 0.0
2014-Nov-17 07:33N 54°38' W 008°26'0 0.0
2014-Nov-17 06:33N 54°38' W 008°26'0 0.0
2014-Nov-17 05:33N 54°38' W 008°26'0 0.0
2014-Nov-17 04:33N 54°38' W 008°26'0 0.0
2014-Nov-17 03:33N 54°38' W 008°26'0 0.0
2014-Nov-17 02:33N 54°38' W 008°26'0 0.0
2014-Nov-17 01:33N 54°38' W 008°26'0 0.0
2014-Nov-17 00:33N 54°38' W 008°26'0 0.0
2014-Nov-16 23:33N 54°38' W 008°26'0 0.0
2014-Nov-16 22:33N 54°38' W 008°26'0 0.0
2014-Nov-16 21:33N 54°38' W 008°26'0 0.0
2014-Nov-16 20:33N 54°38' W 008°26'0 0.0
2014-Nov-16 19:33N 54°38' W 008°26'0 0.0
2014-Nov-16 18:33N 54°38' W 008°26'0 0.0
2014-Nov-16 17:33N 54°38' W 008°26'0 0.0
2014-Nov-16 16:33N 54°38' W 008°26'0 0.0
2014-Nov-16 15:34N 54°38' W 008°26'0 0.0
2014-Nov-16 14:33N 54°38' W 008°26'0 0.0
2014-Nov-16 13:33N 54°38' W 008°26'0 0.0
2014-Nov-16 12:33N 54°38' W 008°26'0 0.0
2014-Nov-16 11:33N 54°38' W 008°26'0 0.0
2014-Nov-16 10:33N 54°38' W 008°26'0 0.0
2014-Nov-16 09:33N 54°38' W 008°26'0 0.0
2014-Nov-16 08:33N 54°38' W 008°26'0 0.0
2014-Nov-16 07:33N 54°38' W 008°26'0 0.0
2014-Nov-16 06:33N 54°38' W 008°26'0 0.0
2014-Nov-16 05:33N 54°38' W 008°26'0 0.0
2014-Nov-16 04:33N 54°38' W 008°26'0 0.0
2014-Nov-16 03:33N 54°38' W 008°26'0 0.0
2014-Nov-16 02:33N 54°38' W 008°26'0 0.0
2014-Nov-16 01:33N 54°38' W 008°26'0 0.0
2014-Nov-16 00:33N 54°38' W 008°26'0 0.0
2014-Nov-15 23:32N 54°38' W 008°26'0 0.0
2014-Nov-15 22:33N 54°38' W 008°26'0 0.0
2014-Nov-15 21:33N 54°38' W 008°26'0 0.0
2014-Nov-15 20:33N 54°38' W 008°26'0 0.0
2014-Nov-15 19:33N 54°38' W 008°26'0 0.0
2014-Nov-15 18:33N 54°38' W 008°26'0 0.0
2014-Nov-15 17:33N 54°38' W 008°26'0 0.0
2014-Nov-15 16:33N 54°38' W 008°26'0 0.0
2014-Nov-15 15:33N 54°38' W 008°26'0 0.0
2014-Nov-15 14:33N 54°38' W 008°26'0 0.0
2014-Nov-15 13:33N 54°38' W 008°26'0 0.0
2014-Nov-15 12:33N 54°38' W 008°26'0 0.0
2014-Nov-15 11:33N 54°38' W 008°26'7 6.9
2014-Nov-15 10:33N 54°36' W 008°38'22911.2
2014-Nov-14 14:08N 58°07' W 005°54'249 5.0
2014-Nov-12 12:05N 62°14' W 006°48'0 0.5
2014-Nov-12 11:27N 62°14' W 006°48'0 0.0
2014-Nov-12 10:33N 62°14' W 006°48'0 0.0
2014-Nov-12 09:32N 62°14' W 006°48'0 0.0
2014-Nov-12 08:22N 62°14' W 006°48'0 0.0
2014-Nov-12 06:07N 62°14' W 006°48'0 0.0
2014-Nov-12 05:30N 62°14' W 006°48'0 0.0
2014-Nov-12 04:07N 62°14' W 006°48'0 0.0
2014-Nov-11 20:15N 62°14' W 006°48'0 0.0
2014-Nov-11 19:32N 62°14' W 006°48'0 0.1
2014-Nov-11 15:15N 62°14' W 006°48'0 0.0
2014-Nov-11 14:33N 62°14' W 006°48'0 0.0
2014-Nov-11 13:33N 62°14' W 006°48'0 0.0
2014-Nov-11 12:33N 62°14' W 006°48'0 0.0
2014-Nov-11 11:33N 62°14' W 006°48'0 0.0
2014-Nov-11 10:33N 62°14' W 006°48'0 0.0
2014-Nov-11 09:33N 62°14' W 006°48'0 0.0
2014-Nov-11 08:33N 62°14' W 006°48'0 0.0
2014-Nov-11 07:33N 62°14' W 006°48'0 0.0
2014-Nov-11 06:33N 62°14' W 006°48'0 0.0
2014-Nov-11 05:34N 62°14' W 006°48'0 0.0
2014-Nov-11 04:33N 62°14' W 006°48'0 0.0
2014-Nov-11 03:33N 62°14' W 006°48'0 0.0
2014-Nov-11 02:33N 62°14' W 006°48'0 0.0
2014-Nov-11 01:33N 62°14' W 006°48'0 0.2
2014-Nov-11 00:33N 62°14' W 006°48'0 0.0
2014-Nov-10 23:33N 62°14' W 006°48'0 0.0
2014-Nov-10 22:33N 62°14' W 006°48'4 3.6
2014-Nov-10 21:31N 62°18' W 006°48'  

Dump ship's entire track history